map of KORC home
KORC - Airport
Location
City:  Orange City, Iowa, United States
Name:Orange City Municipal Airport
ICAO:KORC
FAA LID:ORC

Details
Type:Airport (Airfield)
Use:Public/Civil
Latitude:4259'20"N (42.988889)
Longitude:9603'45"W (-96.062499)
Datum:WGS 1984
Elevation:1415 ft (431 m)
Variation:2.48E (WMM2015 magnetic declination)
-0.09 annual change
Runways:1
Longest:4252 × 60 ft (1296 × 18.5 m), paved

Time
Time Zone:UTC-6 (DST-5)
Local Time:

Weather
METAR:KORC 152115Z AUTO 17009KT 10SM CLR 04/00 A3002 RMK AO2

Related Locations
Nearby:
Farthest:YAUG: 10662 mi / 17159 km
Augusta [Augusta Airport], WA, AU

Find:

   beyond  
but within

Other Information
Maps:
NOTAMs:
Links:
Sources:

  
  • flag of United States
  • flag of Iowa
  

Sectional Chart

Flight Planning
at skyvector.com

Satellite Image

Google Maps Satellite view

 

Copyright © 2004-2018 Karl L. Swartz. All rights reserved.
The Great Circle Mapper name and logo are trademarks of the Great Circle Mapper.
All other trademarks mentioned herein belong to their respective owners.
Please see credits for attibutions and further copyright information.

  Follow gcmap on Facebook Follow gcmap on Twitter Follow gcmap on Google+ GCmap on LinkedIn

hCard Microformat

Geo Microformat